sensor_id;sensor_type;location;lat;lon;timestamp;P1;durP1;ratioP1;P2;durP2;ratioP2
30515;SDS011;17297;54.022;10.760;2024-01-15T00:02:17;3.15;;;0.93;;
30515;SDS011;17297;54.022;10.760;2024-01-15T00:04:42;3.00;;;1.05;;
30515;SDS011;17297;54.022;10.760;2024-01-15T00:07:08;6.85;;;1.48;;
30515;SDS011;17297;54.022;10.760;2024-01-15T00:09:34;2.80;;;1.20;;
30515;SDS011;17297;54.022;10.760;2024-01-15T00:12:00;2.05;;;1.48;;
30515;SDS011;17297;54.022;10.760;2024-01-15T00:14:25;2.25;;;1.10;;
30515;SDS011;17297;54.022;10.760;2024-01-15T00:16:51;4.93;;;1.85;;
30515;SDS011;17297;54.022;10.760;2024-01-15T00:19:17;3.92;;;1.20;;
30515;SDS011;17297;54.022;10.760;2024-01-15T00:21:45;2.72;;;1.20;;
30515;SDS011;17297;54.022;10.760;2024-01-15T00:24:10;2.38;;;1.05;;
30515;SDS011;17297;54.022;10.760;2024-01-15T00:26:35;2.78;;;1.02;;
30515;SDS011;17297;54.022;10.760;2024-01-15T00:29:01;6.95;;;1.40;;
30515;SDS011;17297;54.022;10.760;2024-01-15T00:31:26;3.88;;;1.48;;
30515;SDS011;17297;54.022;10.760;2024-01-15T00:33:52;3.63;;;0.95;;
30515;SDS011;17297;54.022;10.760;2024-01-15T00:36:17;3.38;;;1.10;;
30515;SDS011;17297;54.022;10.760;2024-01-15T00:38:43;3.50;;;1.38;;
30515;SDS011;17297;54.022;10.760;2024-01-15T00:41:09;2.13;;;1.15;;
30515;SDS011;17297;54.022;10.760;2024-01-15T00:43:34;5.22;;;2.08;;
30515;SDS011;17297;54.022;10.760;2024-01-15T00:46:03;1.98;;;1.23;;
30515;SDS011;17297;54.022;10.760;2024-01-15T00:48:29;1.95;;;1.02;;
30515;SDS011;17297;54.022;10.760;2024-01-15T00:50:54;1.35;;;1.27;;
30515;SDS011;17297;54.022;10.760;2024-01-15T00:53:20;3.03;;;1.10;;
30515;SDS011;17297;54.022;10.760;2024-01-15T00:55:47;5.20;;;1.10;;
30515;SDS011;17297;54.022;10.760;2024-01-15T00:58:13;3.95;;;1.33;;
30515;SDS011;17297;54.022;10.760;2024-01-15T01:00:40;5.47;;;1.38;;
30515;SDS011;17297;54.022;10.760;2024-01-15T01:03:06;2.20;;;1.20;;
30515;SDS011;17297;54.022;10.760;2024-01-15T01:05:33;3.10;;;1.55;;
30515;SDS011;17297;54.022;10.760;2024-01-15T01:07:58;3.85;;;1.90;;
30515;SDS011;17297;54.022;10.760;2024-01-15T01:10:24;3.97;;;1.27;;
30515;SDS011;17297;54.022;10.760;2024-01-15T01:12:49;1.83;;;1.10;;
30515;SDS011;17297;54.022;10.760;2024-01-15T01:15:14;6.72;;;1.25;;
30515;SDS011;17297;54.022;10.760;2024-01-15T01:17:40;1.70;;;0.82;;
30515;SDS011;17297;54.022;10.760;2024-01-15T01:20:05;5.00;;;1.67;;
30515;SDS011;17297;54.022;10.760;2024-01-15T01:22:33;2.60;;;1.00;;
30515;SDS011;17297;54.022;10.760;2024-01-15T01:24:58;3.65;;;1.23;;
30515;SDS011;17297;54.022;10.760;2024-01-15T01:27:24;5.53;;;1.10;;
30515;SDS011;17297;54.022;10.760;2024-01-15T01:29:49;2.47;;;0.90;;
30515;SDS011;17297;54.022;10.760;2024-01-15T01:32:16;1.45;;;0.93;;
30515;SDS011;17297;54.022;10.760;2024-01-15T01:34:42;3.17;;;0.98;;
30515;SDS011;17297;54.022;10.760;2024-01-15T01:37:08;1.75;;;0.90;;
30515;SDS011;17297;54.022;10.760;2024-01-15T01:39:33;1.85;;;1.15;;
30515;SDS011;17297;54.022;10.760;2024-01-15T01:41:59;1.55;;;1.30;;
30515;SDS011;17297;54.022;10.760;2024-01-15T01:44:24;1.92;;;0.80;;
30515;SDS011;17297;54.022;10.760;2024-01-15T01:46:49;1.75;;;0.98;;
30515;SDS011;17297;54.022;10.760;2024-01-15T01:49:16;3.53;;;1.08;;
30515;SDS011;17297;54.022;10.760;2024-01-15T01:51:42;2.30;;;1.30;;
30515;SDS011;17297;54.022;10.760;2024-01-15T01:54:07;2.20;;;1.10;;
30515;SDS011;17297;54.022;10.760;2024-01-15T01:56:34;3.35;;;2.17;;
30515;SDS011;17297;54.022;10.760;2024-01-15T01:59:00;4.43;;;2.15;;
30515;SDS011;17297;54.022;10.760;2024-01-15T02:01:27;4.43;;;2.05;;
30515;SDS011;17297;54.022;10.760;2024-01-15T02:03:53;3.47;;;1.15;;
30515;SDS011;17297;54.022;10.760;2024-01-15T02:06:21;2.80;;;1.13;;
30515;SDS011;17297;54.022;10.760;2024-01-15T02:08:47;3.60;;;1.25;;
30515;SDS011;17297;54.022;10.760;2024-01-15T02:11:13;3.40;;;1.30;;
30515;SDS011;17297;54.022;10.760;2024-01-15T02:13:38;5.05;;;1.48;;
30515;SDS011;17297;54.022;10.760;2024-01-15T02:16:04;3.38;;;1.52;;
30515;SDS011;17297;54.022;10.760;2024-01-15T02:18:38;4.90;;;2.53;;
30515;SDS011;17297;54.022;10.760;2024-01-15T02:21:05;4.40;;;1.58;;
30515;SDS011;17297;54.022;10.760;2024-01-15T02:23:30;4.88;;;1.42;;
30515;SDS011;17297;54.022;10.760;2024-01-15T02:25:55;4.55;;;1.17;;
30515;SDS011;17297;54.022;10.760;2024-01-15T02:28:21;3.95;;;1.17;;
30515;SDS011;17297;54.022;10.760;2024-01-15T02:30:46;6.00;;;1.60;;
30515;SDS011;17297;54.022;10.760;2024-01-15T02:33:11;7.20;;;1.92;;
30515;SDS011;17297;54.022;10.760;2024-01-15T02:35:37;3.40;;;2.08;;
30515;SDS011;17297;54.022;10.760;2024-01-15T02:38:03;5.85;;;1.25;;
30515;SDS011;17297;54.022;10.760;2024-01-15T02:40:29;3.28;;;1.45;;
30515;SDS011;17297;54.022;10.760;2024-01-15T02:42:54;8.43;;;1.88;;
30515;SDS011;17297;54.022;10.760;2024-01-15T02:45:20;7.20;;;1.48;;
30515;SDS011;17297;54.022;10.760;2024-01-15T02:47:46;5.15;;;2.13;;
30515;SDS011;17297;54.022;10.760;2024-01-15T02:50:11;5.68;;;1.45;;
30515;SDS011;17297;54.022;10.760;2024-01-15T02:52:37;4.97;;;2.13;;
30515;SDS011;17297;54.022;10.760;2024-01-15T02:55:02;5.13;;;1.85;;
30515;SDS011;17297;54.022;10.760;2024-01-15T02:57:28;5.00;;;1.90;;
30515;SDS011;17297;54.022;10.760;2024-01-15T02:59:53;4.20;;;1.30;;
30515;SDS011;17297;54.022;10.760;2024-01-15T03:02:19;6.28;;;1.63;;
30515;SDS011;17297;54.022;10.760;2024-01-15T03:04:44;5.03;;;1.17;;
30515;SDS011;17297;54.022;10.760;2024-01-15T03:07:09;5.50;;;1.65;;
30515;SDS011;17297;54.022;10.760;2024-01-15T03:09:35;6.05;;;1.48;;
30515;SDS011;17297;54.022;10.760;2024-01-15T03:12:00;4.07;;;1.40;;
30515;SDS011;17297;54.022;10.760;2024-01-15T03:14:26;3.13;;;1.48;;
30515;SDS011;17297;54.022;10.760;2024-01-15T03:16:52;3.92;;;1.48;;
30515;SDS011;17297;54.022;10.760;2024-01-15T03:19:17;6.00;;;3.53;;
30515;SDS011;17297;54.022;10.760;2024-01-15T03:21:44;6.65;;;2.13;;
30515;SDS011;17297;54.022;10.760;2024-01-15T03:24:09;7.85;;;1.95;;
30515;SDS011;17297;54.022;10.760;2024-01-15T03:26:35;4.53;;;1.83;;
30515;SDS011;17297;54.022;10.760;2024-01-15T03:29:00;5.97;;;1.33;;
30515;SDS011;17297;54.022;10.760;2024-01-15T03:31:25;7.50;;;1.75;;
30515;SDS011;17297;54.022;10.760;2024-01-15T03:33:51;3.42;;;1.50;;
30515;SDS011;17297;54.022;10.760;2024-01-15T03:36:16;6.60;;;2.85;;
30515;SDS011;17297;54.022;10.760;2024-01-15T03:38:41;3.80;;;1.52;;
30515;SDS011;17297;54.022;10.760;2024-01-15T03:41:07;3.63;;;1.30;;
30515;SDS011;17297;54.022;10.760;2024-01-15T03:43:32;2.92;;;1.23;;
30515;SDS011;17297;54.022;10.760;2024-01-15T03:45:58;3.17;;;1.55;;
30515;SDS011;17297;54.022;10.760;2024-01-15T03:48:23;2.67;;;1.50;;
30515;SDS011;17297;54.022;10.760;2024-01-15T03:50:49;4.25;;;1.15;;
30515;SDS011;17297;54.022;10.760;2024-01-15T03:53:14;5.57;;;1.60;;
30515;SDS011;17297;54.022;10.760;2024-01-15T03:55:39;5.05;;;1.60;;
30515;SDS011;17297;54.022;10.760;2024-01-15T03:58:05;8.23;;;1.73;;
30515;SDS011;17297;54.022;10.760;2024-01-15T04:00:30;2.50;;;1.02;;
30515;SDS011;17297;54.022;10.760;2024-01-15T04:02:56;6.53;;;1.40;;
30515;SDS011;17297;54.022;10.760;2024-01-15T04:05:21;4.22;;;1.05;;
30515;SDS011;17297;54.022;10.760;2024-01-15T04:07:46;4.82;;;1.45;;
30515;SDS011;17297;54.022;10.760;2024-01-15T04:10:12;2.50;;;1.00;;
30515;SDS011;17297;54.022;10.760;2024-01-15T04:12:37;5.28;;;1.45;;
30515;SDS011;17297;54.022;10.760;2024-01-15T04:15:03;4.85;;;1.35;;
30515;SDS011;17297;54.022;10.760;2024-01-15T04:17:28;1.95;;;1.10;;
30515;SDS011;17297;54.022;10.760;2024-01-15T04:19:53;4.13;;;1.23;;
30515;SDS011;17297;54.022;10.760;2024-01-15T04:22:19;4.75;;;2.28;;
30515;SDS011;17297;54.022;10.760;2024-01-15T04:24:44;3.08;;;1.13;;
30515;SDS011;17297;54.022;10.760;2024-01-15T04:27:09;3.17;;;1.40;;
30515;SDS011;17297;54.022;10.760;2024-01-15T04:29:37;2.90;;;0.98;;
30515;SDS011;17297;54.022;10.760;2024-01-15T04:32:03;4.68;;;1.10;;
30515;SDS011;17297;54.022;10.760;2024-01-15T04:34:28;2.95;;;1.40;;
30515;SDS011;17297;54.022;10.760;2024-01-15T04:36:53;2.50;;;1.38;;
30515;SDS011;17297;54.022;10.760;2024-01-15T04:39:19;1.17;;;0.98;;
30515;SDS011;17297;54.022;10.760;2024-01-15T04:41:44;5.13;;;1.10;;
30515;SDS011;17297;54.022;10.760;2024-01-15T04:44:10;3.08;;;1.40;;
30515;SDS011;17297;54.022;10.760;2024-01-15T04:46:35;2.05;;;1.05;;
30515;SDS011;17297;54.022;10.760;2024-01-15T04:49:00;10.27;;;1.63;;
30515;SDS011;17297;54.022;10.760;2024-01-15T04:51:26;3.50;;;1.33;;
30515;SDS011;17297;54.022;10.760;2024-01-15T04:53:51;6.68;;;1.73;;
30515;SDS011;17297;54.022;10.760;2024-01-15T04:56:16;7.47;;;1.27;;
30515;SDS011;17297;54.022;10.760;2024-01-15T04:58:42;4.20;;;1.48;;
30515;SDS011;17297;54.022;10.760;2024-01-15T05:01:07;5.40;;;1.33;;
30515;SDS011;17297;54.022;10.760;2024-01-15T05:03:33;4.40;;;1.10;;
30515;SDS011;17297;54.022;10.760;2024-01-15T05:05:58;4.63;;;1.33;;
30515;SDS011;17297;54.022;10.760;2024-01-15T05:08:24;5.47;;;2.67;;
30515;SDS011;17297;54.022;10.760;2024-01-15T05:10:49;4.60;;;2.25;;
30515;SDS011;17297;54.022;10.760;2024-01-15T05:13:14;3.78;;;1.65;;
30515;SDS011;17297;54.022;10.760;2024-01-15T05:15:40;6.18;;;1.67;;
30515;SDS011;17297;54.022;10.760;2024-01-15T05:18:05;5.30;;;1.25;;
30515;SDS011;17297;54.022;10.760;2024-01-15T05:20:31;5.43;;;2.25;;
30515;SDS011;17297;54.022;10.760;2024-01-15T05:22:56;5.57;;;1.48;;
30515;SDS011;17297;54.022;10.760;2024-01-15T05:25:21;2.75;;;1.30;;
30515;SDS011;17297;54.022;10.760;2024-01-15T05:27:47;4.57;;;1.50;;
30515;SDS011;17297;54.022;10.760;2024-01-15T05:30:13;5.93;;;2.08;;
30515;SDS011;17297;54.022;10.760;2024-01-15T05:32:39;6.95;;;1.95;;
30515;SDS011;17297;54.022;10.760;2024-01-15T05:35:04;7.53;;;1.75;;
30515;SDS011;17297;54.022;10.760;2024-01-15T05:37:31;2.20;;;1.08;;
30515;SDS011;17297;54.022;10.760;2024-01-15T05:39:56;9.30;;;1.98;;
30515;SDS011;17297;54.022;10.760;2024-01-15T05:42:22;8.15;;;3.45;;
30515;SDS011;17297;54.022;10.760;2024-01-15T05:44:47;5.57;;;2.00;;
30515;SDS011;17297;54.022;10.760;2024-01-15T05:47:12;4.00;;;1.25;;
30515;SDS011;17297;54.022;10.760;2024-01-15T05:49:38;7.22;;;1.80;;
30515;SDS011;17297;54.022;10.760;2024-01-15T05:52:03;12.27;;;1.85;;
30515;SDS011;17297;54.022;10.760;2024-01-15T05:54:31;6.32;;;2.15;;
30515;SDS011;17297;54.022;10.760;2024-01-15T05:56:56;4.85;;;1.55;;
30515;SDS011;17297;54.022;10.760;2024-01-15T05:59:22;9.25;;;1.42;;
30515;SDS011;17297;54.022;10.760;2024-01-15T06:01:47;5.35;;;1.33;;
30515;SDS011;17297;54.022;10.760;2024-01-15T06:04:12;6.15;;;1.83;;
30515;SDS011;17297;54.022;10.760;2024-01-15T06:06:38;5.38;;;2.10;;
30515;SDS011;17297;54.022;10.760;2024-01-15T06:09:03;11.65;;;3.15;;
30515;SDS011;17297;54.022;10.760;2024-01-15T06:11:33;8.95;;;1.65;;
30515;SDS011;17297;54.022;10.760;2024-01-15T06:13:58;5.18;;;1.92;;
30515;SDS011;17297;54.022;10.760;2024-01-15T06:16:25;5.40;;;1.42;;
30515;SDS011;17297;54.022;10.760;2024-01-15T06:18:51;3.05;;;1.90;;
30515;SDS011;17297;54.022;10.760;2024-01-15T06:21:16;6.03;;;1.23;;
30515;SDS011;17297;54.022;10.760;2024-01-15T06:23:43;7.30;;;1.60;;
30515;SDS011;17297;54.022;10.760;2024-01-15T06:26:08;6.13;;;1.60;;
30515;SDS011;17297;54.022;10.760;2024-01-15T06:28:36;4.22;;;1.63;;
30515;SDS011;17297;54.022;10.760;2024-01-15T06:31:02;6.32;;;1.67;;
30515;SDS011;17297;54.022;10.760;2024-01-15T06:33:27;6.15;;;1.60;;
30515;SDS011;17297;54.022;10.760;2024-01-15T06:35:52;7.95;;;2.80;;
30515;SDS011;17297;54.022;10.760;2024-01-15T06:38:18;3.63;;;1.98;;
30515;SDS011;17297;54.022;10.760;2024-01-15T06:40:43;5.10;;;1.90;;
30515;SDS011;17297;54.022;10.760;2024-01-15T06:43:13;4.40;;;1.55;;
30515;SDS011;17297;54.022;10.760;2024-01-15T06:45:40;4.35;;;1.20;;
30515;SDS011;17297;54.022;10.760;2024-01-15T06:48:05;3.15;;;1.30;;
30515;SDS011;17297;54.022;10.760;2024-01-15T06:50:32;4.07;;;1.42;;
30515;SDS011;17297;54.022;10.760;2024-01-15T06:52:57;4.68;;;1.95;;
30515;SDS011;17297;54.022;10.760;2024-01-15T06:55:23;3.53;;;1.40;;
30515;SDS011;17297;54.022;10.760;2024-01-15T06:57:48;3.60;;;1.20;;
30515;SDS011;17297;54.022;10.760;2024-01-15T07:00:14;6.47;;;1.30;;
30515;SDS011;17297;54.022;10.760;2024-01-15T07:02:39;4.18;;;1.30;;
30515;SDS011;17297;54.022;10.760;2024-01-15T07:05:05;3.83;;;1.33;;
30515;SDS011;17297;54.022;10.760;2024-01-15T07:07:30;3.42;;;1.38;;
30515;SDS011;17297;54.022;10.760;2024-01-15T07:09:56;4.28;;;1.60;;
30515;SDS011;17297;54.022;10.760;2024-01-15T07:12:21;4.57;;;1.90;;
30515;SDS011;17297;54.022;10.760;2024-01-15T07:14:47;2.33;;;1.30;;
30515;SDS011;17297;54.022;10.760;2024-01-15T07:17:12;5.40;;;1.55;;
30515;SDS011;17297;54.022;10.760;2024-01-15T07:19:38;5.63;;;1.95;;
30515;SDS011;17297;54.022;10.760;2024-01-15T07:22:03;6.53;;;1.50;;
30515;SDS011;17297;54.022;10.760;2024-01-15T07:24:28;2.45;;;1.08;;
30515;SDS011;17297;54.022;10.760;2024-01-15T07:26:54;5.85;;;1.75;;
30515;SDS011;17297;54.022;10.760;2024-01-15T07:29:19;4.72;;;1.60;;
30515;SDS011;17297;54.022;10.760;2024-01-15T07:31:49;6.90;;;2.15;;
30515;SDS011;17297;54.022;10.760;2024-01-15T07:34:17;3.08;;;1.60;;
30515;SDS011;17297;54.022;10.760;2024-01-15T07:36:46;6.72;;;1.40;;
30515;SDS011;17297;54.022;10.760;2024-01-15T07:39:11;3.13;;;1.48;;
30515;SDS011;17297;54.022;10.760;2024-01-15T07:41:37;3.15;;;1.20;;
30515;SDS011;17297;54.022;10.760;2024-01-15T07:44:03;5.35;;;1.40;;
30515;SDS011;17297;54.022;10.760;2024-01-15T07:46:28;3.65;;;1.60;;
30515;SDS011;17297;54.022;10.760;2024-01-15T07:48:54;4.82;;;1.77;;
30515;SDS011;17297;54.022;10.760;2024-01-15T07:51:22;2.60;;;1.40;;
30515;SDS011;17297;54.022;10.760;2024-01-15T07:53:49;3.05;;;1.20;;
30515;SDS011;17297;54.022;10.760;2024-01-15T07:56:14;8.20;;;2.10;;
30515;SDS011;17297;54.022;10.760;2024-01-15T07:58:40;4.55;;;1.80;;
30515;SDS011;17297;54.022;10.760;2024-01-15T08:01:05;4.15;;;1.67;;
30515;SDS011;17297;54.022;10.760;2024-01-15T08:03:31;4.97;;;2.00;;
30515;SDS011;17297;54.022;10.760;2024-01-15T08:05:56;3.65;;;1.92;;
30515;SDS011;17297;54.022;10.760;2024-01-15T08:08:24;3.38;;;1.40;;
30515;SDS011;17297;54.022;10.760;2024-01-15T08:10:50;6.03;;;1.75;;
30515;SDS011;17297;54.022;10.760;2024-01-15T08:13:15;7.18;;;1.88;;
30515;SDS011;17297;54.022;10.760;2024-01-15T08:15:41;2.25;;;1.20;;
30515;SDS011;17297;54.022;10.760;2024-01-15T08:18:06;5.55;;;2.70;;
30515;SDS011;17297;54.022;10.760;2024-01-15T08:20:32;6.90;;;2.47;;
30515;SDS011;17297;54.022;10.760;2024-01-15T08:22:57;3.15;;;1.55;;
30515;SDS011;17297;54.022;10.760;2024-01-15T08:25:22;3.60;;;1.33;;
30515;SDS011;17297;54.022;10.760;2024-01-15T08:27:48;7.50;;;2.78;;
30515;SDS011;17297;54.022;10.760;2024-01-15T08:30:13;5.45;;;1.73;;
30515;SDS011;17297;54.022;10.760;2024-01-15T08:32:39;7.03;;;1.75;;
30515;SDS011;17297;54.022;10.760;2024-01-15T08:35:07;4.75;;;1.63;;
30515;SDS011;17297;54.022;10.760;2024-01-15T08:37:34;5.45;;;1.73;;
30515;SDS011;17297;54.022;10.760;2024-01-15T08:39:59;5.43;;;2.60;;
30515;SDS011;17297;54.022;10.760;2024-01-15T08:42:24;6.75;;;1.63;;
30515;SDS011;17297;54.022;10.760;2024-01-15T08:44:50;3.22;;;1.63;;
30515;SDS011;17297;54.022;10.760;2024-01-15T08:47:15;3.13;;;1.15;;
30515;SDS011;17297;54.022;10.760;2024-01-15T08:49:41;6.63;;;1.90;;
30515;SDS011;17297;54.022;10.760;2024-01-15T08:52:08;2.17;;;1.13;;
30515;SDS011;17297;54.022;10.760;2024-01-15T08:54:34;2.75;;;1.08;;
30515;SDS011;17297;54.022;10.760;2024-01-15T08:56:59;2.47;;;1.00;;
30515;SDS011;17297;54.022;10.760;2024-01-15T08:59:25;1.65;;;1.15;;
30515;SDS011;17297;54.022;10.760;2024-01-15T09:01:51;2.13;;;1.13;;
30515;SDS011;17297;54.022;10.760;2024-01-15T09:04:17;6.43;;;1.02;;
30515;SDS011;17297;54.022;10.760;2024-01-15T09:06:45;3.45;;;0.82;;
30515;SDS011;17297;54.022;10.760;2024-01-15T09:09:14;1.08;;;0.80;;
30515;SDS011;17297;54.022;10.760;2024-01-15T09:11:40;1.15;;;1.00;;
30515;SDS011;17297;54.022;10.760;2024-01-15T09:14:06;1.58;;;0.70;;
30515;SDS011;17297;54.022;10.760;2024-01-15T09:16:31;0.82;;;0.65;;
30515;SDS011;17297;54.022;10.760;2024-01-15T09:18:57;1.98;;;0.73;;
30515;SDS011;17297;54.022;10.760;2024-01-15T09:21:22;1.95;;;0.80;;
30515;SDS011;17297;54.022;10.760;2024-01-15T09:23:49;0.32;;;0.32;;
30515;SDS011;17297;54.022;10.760;2024-01-15T09:26:15;5.40;;;0.85;;
30515;SDS011;17297;54.022;10.760;2024-01-15T09:28:40;1.20;;;1.02;;
30515;SDS011;17297;54.022;10.760;2024-01-15T09:31:06;1.20;;;0.73;;
30515;SDS011;17297;54.022;10.760;2024-01-15T09:33:31;1.90;;;0.68;;
30515;SDS011;17297;54.022;10.760;2024-01-15T09:35:56;2.63;;;0.73;;
30515;SDS011;17297;54.022;10.760;2024-01-15T09:38:22;0.55;;;0.50;;
30515;SDS011;17297;54.022;10.760;2024-01-15T09:40:49;3.03;;;0.73;;
30515;SDS011;17297;54.022;10.760;2024-01-15T09:43:14;2.15;;;0.60;;
30515;SDS011;17297;54.022;10.760;2024-01-15T09:45:40;1.80;;;1.60;;
30515;SDS011;17297;54.022;10.760;2024-01-15T09:48:07;1.15;;;1.08;;
30515;SDS011;17297;54.022;10.760;2024-01-15T09:50:33;1.33;;;0.70;;
30515;SDS011;17297;54.022;10.760;2024-01-15T09:53:00;0.85;;;0.60;;
30515;SDS011;17297;54.022;10.760;2024-01-15T09:55:26;1.63;;;0.70;;
30515;SDS011;17297;54.022;10.760;2024-01-15T09:57:52;0.63;;;0.52;;
30515;SDS011;17297;54.022;10.760;2024-01-15T10:00:20;1.85;;;0.68;;
30515;SDS011;17297;54.022;10.760;2024-01-15T10:02:46;2.47;;;0.75;;
30515;SDS011;17297;54.022;10.760;2024-01-15T10:05:11;1.10;;;0.70;;
30515;SDS011;17297;54.022;10.760;2024-01-15T10:07:37;1.10;;;0.70;;
30515;SDS011;17297;54.022;10.760;2024-01-15T10:10:03;1.08;;;0.60;;
30515;SDS011;17297;54.022;10.760;2024-01-15T10:12:29;1.00;;;0.50;;
30515;SDS011;17297;54.022;10.760;2024-01-15T10:14:55;0.60;;;0.60;;
30515;SDS011;17297;54.022;10.760;2024-01-15T10:17:21;1.15;;;0.80;;
30515;SDS011;17297;54.022;10.760;2024-01-15T10:19:46;2.35;;;0.90;;
30515;SDS011;17297;54.022;10.760;2024-01-15T10:22:13;0.68;;;0.68;;
30515;SDS011;17297;54.022;10.760;2024-01-15T10:24:40;1.95;;;0.80;;
30515;SDS011;17297;54.022;10.760;2024-01-15T10:27:09;1.23;;;0.60;;
30515;SDS011;17297;54.022;10.760;2024-01-15T10:29:35;0.90;;;0.68;;
30515;SDS011;17297;54.022;10.760;2024-01-15T10:32:01;1.08;;;0.60;;
30515;SDS011;17297;54.022;10.760;2024-01-15T10:34:27;1.52;;;0.43;;
30515;SDS011;17297;54.022;10.760;2024-01-15T10:36:53;0.70;;;0.70;;
30515;SDS011;17297;54.022;10.760;2024-01-15T10:39:23;2.58;;;2.38;;
30515;SDS011;17297;54.022;10.760;2024-01-15T10:41:49;0.98;;;0.70;;
30515;SDS011;17297;54.022;10.760;2024-01-15T10:44:16;2.72;;;0.68;;
30515;SDS011;17297;54.022;10.760;2024-01-15T10:46:42;1.02;;;0.60;;
30515;SDS011;17297;54.022;10.760;2024-01-15T10:49:08;1.13;;;0.63;;
30515;SDS011;17297;54.022;10.760;2024-01-15T10:51:35;1.00;;;0.80;;
30515;SDS011;17297;54.022;10.760;2024-01-15T10:54:01;2.63;;;0.75;;
30515;SDS011;17297;54.022;10.760;2024-01-15T10:56:27;4.07;;;1.15;;
30515;SDS011;17297;54.022;10.760;2024-01-15T10:58:52;0.98;;;0.60;;
30515;SDS011;17297;54.022;10.760;2024-01-15T11:01:19;3.50;;;0.93;;
30515;SDS011;17297;54.022;10.760;2024-01-15T11:03:45;0.90;;;0.70;;
30515;SDS011;17297;54.022;10.760;2024-01-15T11:06:18;1.13;;;0.77;;
30515;SDS011;17297;54.022;10.760;2024-01-15T11:08:45;0.70;;;0.70;;
30515;SDS011;17297;54.022;10.760;2024-01-15T11:11:14;1.33;;;0.60;;
30515;SDS011;17297;54.022;10.760;2024-01-15T11:13:41;0.57;;;0.55;;
30515;SDS011;17297;54.022;10.760;2024-01-15T11:16:10;2.53;;;0.90;;
30515;SDS011;17297;54.022;10.760;2024-01-15T11:21:23;2.42;;;0.80;;
30515;SDS011;17297;54.022;10.760;2024-01-15T11:23:57;0.93;;;0.68;;
30515;SDS011;17297;54.022;10.760;2024-01-15T11:26:30;4.95;;;1.02;;
30515;SDS011;17297;54.022;10.760;2024-01-15T11:29:05;0.60;;;0.50;;
30515;SDS011;17297;54.022;10.760;2024-01-15T11:34:03;2.25;;;0.93;;
30515;SDS011;17297;54.022;10.760;2024-01-15T11:42:00;1.13;;;1.02;;
30515;SDS011;17297;54.022;10.760;2024-01-15T11:44:28;1.65;;;0.80;;
30515;SDS011;17297;54.022;10.760;2024-01-15T11:46:57;1.23;;;0.52;;
30515;SDS011;17297;54.022;10.760;2024-01-15T11:49:47;1.95;;;0.75;;
30515;SDS011;17297;54.022;10.760;2024-01-15T11:55:11;0.75;;;0.75;;
30515;SDS011;17297;54.022;10.760;2024-01-15T11:57:48;1.10;;;1.00;;
30515;SDS011;17297;54.022;10.760;2024-01-15T12:00:15;0.60;;;0.60;;
30515;SDS011;17297;54.022;10.760;2024-01-15T12:02:45;1.63;;;0.70;;
30515;SDS011;17297;54.022;10.760;2024-01-15T12:05:13;1.63;;;0.52;;
30515;SDS011;17297;54.022;10.760;2024-01-15T12:07:40;0.80;;;0.40;;
30515;SDS011;17297;54.022;10.760;2024-01-15T12:10:12;1.55;;;0.70;;
30515;SDS011;17297;54.022;10.760;2024-01-15T12:12:59;1.67;;;0.70;;
30515;SDS011;17297;54.022;10.760;2024-01-15T12:15:35;2.28;;;0.70;;
30515;SDS011;17297;54.022;10.760;2024-01-15T12:18:01;1.35;;;0.75;;
30515;SDS011;17297;54.022;10.760;2024-01-15T12:20:28;1.77;;;1.02;;
30515;SDS011;17297;54.022;10.760;2024-01-15T12:22:54;0.80;;;0.60;;
30515;SDS011;17297;54.022;10.760;2024-01-15T12:25:22;1.33;;;0.73;;
30515;SDS011;17297;54.022;10.760;2024-01-15T12:27:48;2.72;;;1.38;;
30515;SDS011;17297;54.022;10.760;2024-01-15T12:30:14;2.17;;;0.70;;
30515;SDS011;17297;54.022;10.760;2024-01-15T12:32:43;2.70;;;0.80;;
30515;SDS011;17297;54.022;10.760;2024-01-15T12:35:09;1.02;;;1.02;;
30515;SDS011;17297;54.022;10.760;2024-01-15T12:37:36;0.85;;;0.68;;
30515;SDS011;17297;54.022;10.760;2024-01-15T12:40:02;2.65;;;0.85;;
30515;SDS011;17297;54.022;10.760;2024-01-15T12:42:29;0.50;;;0.50;;
30515;SDS011;17297;54.022;10.760;2024-01-15T12:44:55;2.70;;;0.90;;
30515;SDS011;17297;54.022;10.760;2024-01-15T12:47:21;1.30;;;0.90;;
30515;SDS011;17297;54.022;10.760;2024-01-15T12:49:47;2.03;;;0.80;;
30515;SDS011;17297;54.022;10.760;2024-01-15T12:52:18;0.85;;;0.55;;
30515;SDS011;17297;54.022;10.760;2024-01-15T12:54:44;3.65;;;0.75;;
30515;SDS011;17297;54.022;10.760;2024-01-15T12:57:10;0.60;;;0.50;;
30515;SDS011;17297;54.022;10.760;2024-01-15T12:59:35;2.17;;;0.95;;
30515;SDS011;17297;54.022;10.760;2024-01-15T13:02:00;1.13;;;0.95;;
30515;SDS011;17297;54.022;10.760;2024-01-15T13:04:26;2.38;;;0.60;;
30515;SDS011;17297;54.022;10.760;2024-01-15T13:06:52;1.10;;;0.80;;
30515;SDS011;17297;54.022;10.760;2024-01-15T13:09:18;1.35;;;0.70;;
30515;SDS011;17297;54.022;10.760;2024-01-15T13:11:46;2.15;;;0.60;;
30515;SDS011;17297;54.022;10.760;2024-01-15T13:14:12;0.98;;;0.80;;
30515;SDS011;17297;54.022;10.760;2024-01-15T13:16:41;1.15;;;0.60;;
30515;SDS011;17297;54.022;10.760;2024-01-15T13:19:10;0.77;;;0.73;;
30515;SDS011;17297;54.022;10.760;2024-01-15T13:21:39;0.85;;;0.50;;
30515;SDS011;17297;54.022;10.760;2024-01-15T13:24:05;1.05;;;0.60;;
30515;SDS011;17297;54.022;10.760;2024-01-15T13:26:34;1.98;;;0.63;;
30515;SDS011;17297;54.022;10.760;2024-01-15T13:29:00;1.27;;;0.63;;
30515;SDS011;17297;54.022;10.760;2024-01-15T13:31:26;1.05;;;0.70;;
30515;SDS011;17297;54.022;10.760;2024-01-15T13:33:53;1.13;;;1.02;;
30515;SDS011;17297;54.022;10.760;2024-01-15T13:36:18;1.45;;;0.95;;
30515;SDS011;17297;54.022;10.760;2024-01-15T13:38:44;0.77;;;0.68;;
30515;SDS011;17297;54.022;10.760;2024-01-15T13:41:09;1.60;;;1.50;;
30515;SDS011;17297;54.022;10.760;2024-01-15T13:43:34;0.80;;;0.63;;
30515;SDS011;17297;54.022;10.760;2024-01-15T13:46:00;0.60;;;0.60;;
30515;SDS011;17297;54.022;10.760;2024-01-15T13:48:25;0.70;;;0.70;;
30515;SDS011;17297;54.022;10.760;2024-01-15T13:50:51;1.00;;;0.47;;
30515;SDS011;17297;54.022;10.760;2024-01-15T13:53:17;0.82;;;0.70;;
30515;SDS011;17297;54.022;10.760;2024-01-15T13:55:44;0.90;;;0.80;;
30515;SDS011;17297;54.022;10.760;2024-01-15T13:58:09;1.85;;;0.80;;
30515;SDS011;17297;54.022;10.760;2024-01-15T14:00:35;1.98;;;0.70;;
30515;SDS011;17297;54.022;10.760;2024-01-15T14:03:00;4.63;;;0.80;;
30515;SDS011;17297;54.022;10.760;2024-01-15T14:05:25;0.77;;;0.70;;
30515;SDS011;17297;54.022;10.760;2024-01-15T14:07:51;0.75;;;0.55;;
30515;SDS011;17297;54.022;10.760;2024-01-15T14:10:16;1.55;;;0.70;;
30515;SDS011;17297;54.022;10.760;2024-01-15T14:12:42;0.60;;;0.50;;
30515;SDS011;17297;54.022;10.760;2024-01-15T14:15:08;1.75;;;0.70;;
30515;SDS011;17297;54.022;10.760;2024-01-15T14:17:34;1.50;;;0.70;;
30515;SDS011;17297;54.022;10.760;2024-01-15T14:19:59;0.90;;;0.43;;
30515;SDS011;17297;54.022;10.760;2024-01-15T14:22:24;0.60;;;0.60;;
30515;SDS011;17297;54.022;10.760;2024-01-15T14:24:50;1.48;;;0.52;;
30515;SDS011;17297;54.022;10.760;2024-01-15T14:27:16;1.40;;;0.73;;
30515;SDS011;17297;54.022;10.760;2024-01-15T14:29:41;0.38;;;0.38;;
30515;SDS011;17297;54.022;10.760;2024-01-15T14:32:07;1.55;;;0.40;;
30515;SDS011;17297;54.022;10.760;2024-01-15T14:34:32;1.38;;;0.52;;
30515;SDS011;17297;54.022;10.760;2024-01-15T14:36:57;0.98;;;0.73;;
30515;SDS011;17297;54.022;10.760;2024-01-15T14:39:23;1.77;;;0.70;;
30515;SDS011;17297;54.022;10.760;2024-01-15T14:41:48;1.58;;;0.65;;